createdAt,value
2018-05-12T00:00:41.887Z,60.00
2018-05-12T00:03:09.427Z,60.00
2018-05-12T00:05:37.092Z,60.00
2018-05-12T00:08:04.639Z,60.00
2018-05-12T00:10:32.208Z,60.00
2018-05-12T00:12:59.746Z,60.00
2018-05-12T00:15:28.071Z,60.00
2018-05-12T00:17:55.629Z,60.00
2018-05-12T00:20:23.190Z,60.00
2018-05-12T00:22:50.734Z,60.00
2018-05-12T00:25:18.324Z,60.00
2018-05-12T00:27:45.872Z,60.10
2018-05-12T00:30:13.426Z,60.20
2018-05-12T00:32:40.969Z,60.30
2018-05-12T00:35:08.530Z,60.30
2018-05-12T00:37:36.074Z,60.30
2018-05-12T00:40:03.650Z,60.40
2018-05-12T00:42:31.191Z,60.50
2018-05-12T00:44:59.678Z,60.50
2018-05-12T00:47:27.217Z,60.60
2018-05-12T00:49:55.549Z,60.60
2018-05-12T00:52:23.100Z,60.60
2018-05-12T00:54:50.668Z,60.60
2018-05-12T00:57:18.205Z,60.70
2018-05-12T00:59:45.765Z,60.70
2018-05-12T01:02:13.303Z,60.80
2018-05-12T01:04:40.866Z,60.90
2018-05-12T01:07:08.411Z,61.00
2018-05-12T01:09:36.832Z,61.00
2018-05-12T01:12:04.372Z,61.00
2018-05-12T01:14:31.921Z,61.00
2018-05-12T01:17:00.251Z,61.10
2018-05-12T01:19:27.822Z,61.00
2018-05-12T01:21:56.155Z,61.90
2018-05-12T01:24:23.690Z,61.20
2018-05-12T01:26:52.018Z,61.20
2018-05-12T01:29:19.555Z,61.20
2018-05-12T01:31:47.115Z,61.20
2018-05-12T01:34:14.651Z,61.20
2018-05-12T01:36:42.979Z,61.10
2018-05-12T01:39:10.520Z,61.10
2018-05-12T01:41:38.081Z,61.10
2018-05-12T01:44:05.624Z,61.10
2018-05-12T01:46:33.188Z,61.00
2018-05-12T01:49:00.728Z,61.10
2018-05-12T01:51:29.062Z,61.00
2018-05-12T01:53:56.702Z,61.00
2018-05-12T01:56:24.273Z,61.10
2018-05-12T01:58:52.575Z,61.30
2018-05-12T02:01:20.902Z,61.30
2018-05-12T02:03:48.442Z,61.30
2018-05-12T02:06:16.770Z,61.40
2018-05-12T02:08:44.313Z,61.30
2018-05-12T02:11:11.878Z,61.20
2018-05-12T02:13:39.415Z,61.30
2018-05-12T02:16:06.979Z,61.20
2018-05-12T02:18:34.527Z,61.20
2018-05-12T02:21:02.854Z,61.10
2018-05-12T02:23:30.400Z,61.10
2018-05-12T02:25:57.963Z,61.00
2018-05-12T02:28:51.941Z,61.00
2018-05-12T02:31:19.495Z,60.90
2018-05-12T02:33:47.037Z,60.80
2018-05-12T02:36:14.603Z,60.90
2018-05-12T02:38:42.141Z,60.80
2018-05-12T02:41:10.463Z,60.90
2018-05-12T02:43:37.998Z,60.80
2018-05-12T02:46:05.583Z,60.80
2018-05-12T02:48:33.118Z,60.80
2018-05-12T02:51:00.678Z,60.70
2018-05-12T02:53:28.219Z,60.80
2018-05-12T02:55:56.541Z,60.80
2018-05-12T02:58:24.081Z,60.80
2018-05-12T03:00:51.633Z,60.80
2018-05-12T03:03:19.170Z,61.00
2018-05-12T03:05:47.496Z,60.90
2018-05-12T03:08:15.039Z,60.90
2018-05-12T03:10:42.595Z,60.90
2018-05-12T03:13:10.134Z,60.90
2018-05-12T03:15:38.459Z,61.10
2018-05-12T03:18:06.004Z,61.10
2018-05-12T03:20:33.562Z,61.00
2018-05-12T03:23:01.122Z,61.20
2018-05-12T03:25:28.684Z,61.20
2018-05-12T03:27:56.222Z,61.20
2018-05-12T03:30:23.785Z,61.20
2018-05-12T03:32:51.318Z,61.20
2018-05-12T03:35:19.642Z,61.30
2018-05-12T03:37:47.301Z,61.30
2018-05-12T03:40:15.601Z,61.20
2018-05-12T03:42:43.928Z,61.30
2018-05-12T03:45:12.228Z,61.40
2018-05-12T03:47:39.783Z,61.40
2018-05-12T03:50:07.320Z,61.50
2018-05-12T03:52:35.643Z,61.80
2018-05-12T03:55:03.181Z,61.80
2018-05-12T03:57:30.751Z,61.90
2018-05-12T03:59:58.310Z,62.00
2018-05-12T04:02:25.876Z,62.00
2018-05-12T04:05:14.202Z,62.20
2018-05-12T04:07:53.493Z,62.20
2018-05-12T04:10:42.736Z,62.20
2018-05-12T04:13:10.274Z,62.20
2018-05-12T04:15:37.815Z,62.40
2018-05-12T04:18:06.148Z,62.50
2018-05-12T04:20:33.683Z,62.50
2018-05-12T04:23:01.251Z,62.50
2018-05-12T04:25:28.904Z,62.60
2018-05-12T04:27:56.462Z,62.60
2018-05-12T04:30:24.004Z,62.70
2018-05-12T04:32:51.561Z,62.70
2018-05-12T04:35:19.103Z,62.80
2018-05-12T04:37:47.431Z,62.90
2018-05-12T04:40:14.978Z,62.90
2018-05-12T04:42:42.548Z,63.00
2018-05-12T04:45:10.083Z,63.10
2018-05-12T04:47:37.651Z,63.20
2018-05-12T04:50:05.196Z,63.20
2018-05-12T04:52:32.759Z,63.40
2018-05-12T04:55:00.299Z,63.50
2018-05-12T04:57:28.721Z,63.60
2018-05-12T04:59:56.259Z,63.60
2018-05-12T05:02:23.818Z,63.70
2018-05-12T05:04:51.367Z,63.70
2018-05-12T05:07:19.690Z,63.80
2018-05-12T05:09:47.224Z,63.70
2018-05-12T05:12:14.790Z,63.70
2018-05-12T05:14:42.328Z,63.80
2018-05-12T05:17:10.660Z,63.80
2018-05-12T05:19:38.202Z,64.60
2018-05-12T05:22:05.761Z,64.00
2018-05-12T05:24:33.303Z,64.10
2018-05-12T05:27:00.863Z,64.10
2018-05-12T05:29:28.406Z,64.20
2018-05-12T05:31:56.735Z,64.30
2018-05-12T05:34:24.275Z,64.30
2018-05-12T05:36:53.082Z,65.10
2018-05-12T05:39:20.624Z,64.30
2018-05-12T05:41:48.184Z,64.30
2018-05-12T05:44:15.721Z,64.40
2018-05-12T05:46:43.346Z,64.60
2018-05-12T05:49:10.837Z,64.60
2018-05-12T05:51:38.398Z,64.60
2018-05-12T05:54:05.934Z,64.70
2018-05-12T05:56:34.239Z,64.40
2018-05-12T05:59:01.921Z,64.70
2018-05-12T06:01:29.481Z,64.70
2018-05-12T06:03:57.450Z,64.70
2018-05-12T06:06:25.108Z,64.80
2018-05-12T06:08:52.673Z,65.00
2018-05-12T06:11:22.297Z,65.10
2018-05-12T06:13:49.849Z,65.20
2018-05-12T06:16:17.421Z,65.10
2018-05-12T06:18:44.985Z,65.20
2018-05-12T06:21:12.528Z,65.00
2018-05-12T06:23:40.088Z,65.30
2018-05-12T06:26:07.622Z,65.00
2018-05-12T06:28:35.192Z,65.00
2018-05-12T06:31:02.751Z,64.90
2018-05-12T06:33:30.344Z,65.00
2018-05-12T06:35:57.883Z,65.00
2018-05-12T06:38:25.447Z,64.70
2018-05-12T06:40:52.988Z,65.20
2018-05-12T06:43:20.554Z,69.50
2018-05-12T06:45:48.123Z,68.60
2018-05-12T06:48:15.679Z,68.60
2018-05-12T06:50:43.217Z,68.80
2018-05-12T06:53:10.781Z,69.00
2018-05-12T06:55:38.315Z,68.80
2018-05-12T06:58:06.642Z,69.60
2018-05-12T07:00:34.190Z,68.90
2018-05-12T07:03:01.864Z,69.70
2018-05-12T07:05:29.421Z,68.70
2018-05-12T07:07:56.981Z,68.50
2018-05-12T07:10:24.515Z,68.30
2018-05-12T07:12:52.842Z,68.00
2018-05-12T07:15:20.380Z,68.10
2018-05-12T07:17:48.042Z,68.20
2018-05-12T07:20:15.587Z,67.90
2018-05-12T07:22:43.147Z,67.90
2018-05-12T07:25:10.696Z,67.60
2018-05-12T07:27:39.040Z,67.70
2018-05-12T07:30:06.579Z,67.60
2018-05-12T07:32:34.142Z,67.40
2018-05-12T07:35:01.772Z,67.30
2018-05-12T07:37:29.337Z,67.20
2018-05-12T07:39:56.878Z,67.30
2018-05-12T07:42:25.201Z,67.00
2018-05-12T07:44:52.745Z,67.00
2018-05-12T07:47:20.306Z,66.70
2018-05-12T07:49:47.842Z,66.70
2018-05-12T07:52:15.406Z,66.60
2018-05-12T07:54:42.941Z,66.30
2018-05-12T07:57:11.238Z,66.20
2018-05-12T07:59:38.797Z,66.10
2018-05-12T08:02:06.343Z,66.10
2018-05-12T08:04:34.673Z,66.30
2018-05-12T08:07:02.253Z,66.30
2018-05-12T08:09:29.799Z,66.00
2018-05-12T08:11:57.334Z,66.20
2018-05-12T08:14:24.896Z,66.30
2018-05-12T08:16:52.450Z,66.20
2018-05-12T08:19:20.013Z,66.50
2018-05-12T08:21:47.547Z,66.30
2018-05-12T08:24:15.881Z,66.30
2018-05-12T08:26:43.416Z,66.20
2018-05-12T08:29:10.978Z,66.30
2018-05-12T08:31:38.600Z,66.20
2018-05-12T08:34:06.096Z,66.10
2018-05-12T08:36:33.641Z,66.20
2018-05-12T08:39:01.201Z,66.10
2018-05-12T08:41:28.771Z,66.10
2018-05-12T08:43:56.330Z,65.90
2018-05-12T08:46:23.862Z,65.90
2018-05-12T08:48:52.185Z,65.90
2018-05-12T08:51:19.719Z,65.80
2018-05-12T08:53:47.277Z,65.80
2018-05-12T08:56:14.819Z,65.80
2018-05-12T08:58:43.141Z,65.70
2018-05-12T09:01:10.680Z,65.60
2018-05-12T09:03:38.235Z,65.60
2018-05-12T09:06:05.775Z,65.60
2018-05-12T09:08:34.105Z,65.50
2018-05-12T09:11:01.652Z,65.50
2018-05-12T09:13:29.222Z,65.40
2018-05-12T09:15:56.758Z,65.20
2018-05-12T09:18:24.317Z,65.10
2018-05-12T09:20:51.850Z,64.80
2018-05-12T09:23:20.174Z,64.40
2018-05-12T09:25:47.710Z,64.40
2018-05-12T09:28:15.386Z,64.10
2018-05-12T09:30:42.930Z,63.70
2018-05-12T09:33:10.500Z,63.50
2018-05-12T09:35:38.043Z,63.30
2018-05-12T09:38:05.608Z,62.70
2018-05-12T09:40:33.184Z,62.50
2018-05-12T09:43:00.721Z,62.00
2018-05-12T09:45:28.285Z,61.70
2018-05-12T09:47:55.834Z,61.30
2018-05-12T09:50:24.169Z,60.70
2018-05-12T09:52:51.707Z,60.70
2018-05-12T09:55:19.272Z,60.30
2018-05-12T09:57:46.807Z,59.90
2018-05-12T10:00:16.211Z,59.80
2018-05-12T10:02:43.779Z,59.50
2018-05-12T10:05:11.340Z,59.20
2018-05-12T10:07:38.873Z,58.90
2018-05-12T10:10:07.204Z,58.20
2018-05-12T10:12:34.734Z,58.30
2018-05-12T10:15:02.304Z,57.60
2018-05-12T10:17:29.837Z,57.30
2018-05-12T10:19:57.398Z,56.90
2018-05-12T10:22:24.967Z,56.50
2018-05-12T10:24:52.557Z,56.80
2018-05-12T10:27:20.091Z,57.60
2018-05-12T10:29:47.665Z,58.40
2018-05-12T10:32:15.213Z,58.20
2018-05-12T10:34:42.772Z,58.40
2018-05-12T10:37:10.315Z,58.00
2018-05-12T10:39:38.638Z,56.00
2018-05-12T10:42:06.178Z,55.90
2018-05-12T10:44:33.735Z,55.30
2018-05-12T10:47:01.271Z,54.80
2018-05-12T10:49:29.599Z,55.10
2018-05-12T10:51:57.131Z,55.10
2018-05-12T10:54:24.701Z,54.70
2018-05-12T10:56:52.237Z,53.90
2018-05-12T10:59:19.794Z,53.50
2018-05-12T11:01:48.175Z,52.90
2018-05-12T11:04:15.674Z,52.90
2018-05-12T11:06:43.216Z,52.70
2018-05-12T11:09:10.789Z,52.60
2018-05-12T11:11:38.323Z,52.40
2018-05-12T11:14:05.865Z,52.20
2018-05-12T11:16:34.191Z,52.00
2018-05-12T11:19:01.748Z,52.00
2018-05-12T11:21:29.294Z,51.60
2018-05-12T11:23:56.831Z,51.60
2018-05-12T11:26:24.398Z,51.50
2018-05-12T11:28:51.940Z,51.40
2018-05-12T11:31:20.269Z,52.00
2018-05-12T11:33:47.814Z,52.00
2018-05-12T11:36:15.480Z,52.30
2018-05-12T11:38:43.025Z,52.10
2018-05-12T11:41:10.600Z,51.40
2018-05-12T11:43:38.152Z,51.10
2018-05-12T11:46:05.710Z,50.30
2018-05-12T11:48:33.249Z,50.40
2018-05-12T11:51:00.809Z,50.00
2018-05-12T11:53:29.115Z,50.00
2018-05-12T11:55:56.674Z,50.00
2018-05-12T11:58:24.287Z,49.80
2018-05-12T12:00:51.790Z,48.10
2018-05-12T12:03:19.319Z,45.90
2018-05-12T12:05:47.651Z,47.30
2018-05-12T12:08:15.190Z,47.20
2018-05-12T12:10:42.748Z,47.60
2018-05-12T12:13:10.281Z,47.50
2018-05-12T12:15:38.606Z,48.10
2018-05-12T12:18:06.147Z,48.00
2018-05-12T12:20:33.709Z,48.40
2018-05-12T12:23:01.242Z,48.30
2018-05-12T12:25:29.566Z,48.50
2018-05-12T12:27:57.107Z,48.50
2018-05-12T12:30:24.668Z,48.80
2018-05-12T12:32:52.216Z,48.90
2018-05-12T12:35:19.776Z,49.00
2018-05-12T12:37:47.311Z,49.10
2018-05-12T12:40:15.728Z,48.90
2018-05-12T12:42:43.255Z,48.90
2018-05-12T12:45:11.613Z,49.30
2018-05-12T12:47:39.130Z,49.30
2018-05-12T12:50:06.668Z,49.60
2018-05-12T12:52:34.229Z,49.80
2018-05-12T12:55:01.791Z,50.20
2018-05-12T12:57:29.582Z,50.40
2018-05-12T12:59:57.118Z,50.30
2018-05-12T13:02:24.674Z,49.90
2018-05-12T13:04:52.273Z,50.30
2018-05-12T13:07:19.787Z,50.40
2018-05-12T13:09:47.372Z,50.90
2018-05-12T13:12:14.927Z,50.70
2018-05-12T13:14:42.466Z,50.90
2018-05-12T13:17:10.031Z,51.20
2018-05-12T13:19:37.566Z,51.80
2018-05-12T13:22:05.975Z,52.40
2018-05-12T13:24:33.462Z,52.70
2018-05-12T13:27:01.014Z,52.30
2018-05-12T13:29:28.546Z,52.90
2018-05-12T13:31:56.102Z,52.20
2018-05-12T13:34:24.395Z,51.60
2018-05-12T13:36:51.955Z,51.60
2018-05-12T13:39:19.492Z,51.50
2018-05-12T13:41:47.813Z,51.80
2018-05-12T13:44:15.347Z,51.80
2018-05-12T13:46:42.903Z,51.90
2018-05-12T13:49:10.484Z,52.00
2018-05-12T13:51:39.241Z,51.80
2018-05-12T13:54:07.532Z,51.70
2018-05-12T13:56:35.089Z,51.70
2018-05-12T13:59:02.639Z,51.50
2018-05-12T14:01:30.968Z,51.40
2018-05-12T14:03:58.565Z,51.40
2018-05-12T14:06:26.906Z,51.30
2018-05-12T14:08:54.657Z,51.20
2018-05-12T14:11:22.316Z,51.30
2018-05-12T14:13:49.979Z,51.40
2018-05-12T14:16:17.722Z,51.30
2018-05-12T14:18:45.275Z,51.20
2018-05-12T14:21:13.594Z,50.70
2018-05-12T14:23:41.125Z,50.60
2018-05-12T14:26:08.702Z,50.60
2018-05-12T14:28:36.229Z,50.70
2018-05-12T14:31:04.559Z,50.70
2018-05-12T14:33:32.092Z,50.70
2018-05-12T14:35:59.647Z,50.60
2018-05-12T14:38:27.183Z,50.60
2018-05-12T14:40:55.500Z,50.90
2018-05-12T14:43:23.060Z,50.90
2018-05-12T14:45:50.593Z,50.90
2018-05-12T14:48:18.218Z,51.00
2018-05-12T14:50:45.749Z,51.40
2018-05-12T14:53:13.299Z,51.30
2018-05-12T14:55:40.832Z,51.00
2018-05-12T14:58:09.238Z,50.90
2018-05-12T15:00:36.770Z,50.80
2018-05-12T15:03:05.097Z,50.60
2018-05-12T15:05:32.633Z,50.60
2018-05-12T15:08:00.200Z,50.50
2018-05-12T15:10:27.737Z,50.30
2018-05-12T15:12:55.291Z,50.00
2018-05-12T15:15:22.877Z,50.40
2018-05-12T15:17:50.462Z,50.60
2018-05-12T15:20:17.996Z,50.30
2018-05-12T15:22:45.561Z,50.60
2018-05-12T15:25:13.102Z,50.80
2018-05-12T15:27:40.661Z,50.90
2018-05-12T15:30:08.191Z,50.60
2018-05-12T15:32:35.742Z,51.00
2018-05-12T15:35:03.289Z,50.60
2018-05-12T15:37:30.844Z,50.20
2018-05-12T15:39:58.375Z,50.90
2018-05-12T15:42:25.925Z,50.80
2018-05-12T15:44:53.459Z,50.70
2018-05-12T15:47:21.778Z,50.10
2018-05-12T15:49:49.368Z,50.10
2018-05-12T15:52:16.890Z,49.90
2018-05-12T15:54:44.419Z,49.90
2018-05-12T15:57:12.730Z,50.20
2018-05-12T15:59:40.253Z,50.80
2018-05-12T16:02:08.572Z,51.00
2018-05-12T16:04:36.131Z,50.90
2018-05-12T16:07:03.688Z,51.00
2018-05-12T16:09:31.214Z,50.70
2018-05-12T16:11:59.537Z,50.60
2018-05-12T16:14:27.080Z,50.60
2018-05-12T16:16:54.646Z,50.00
2018-05-12T16:19:22.176Z,50.10
2018-05-12T16:21:50.501Z,50.00
2018-05-12T16:24:18.039Z,50.00
2018-05-12T16:26:45.590Z,50.30
2018-05-12T16:29:13.113Z,50.10
2018-05-12T16:31:40.723Z,50.00
2018-05-12T16:34:08.995Z,50.70
2018-05-12T16:36:36.563Z,50.70
2018-05-12T16:39:04.098Z,50.20
2018-05-12T16:41:31.635Z,50.60
2018-05-12T16:43:59.193Z,49.80
2018-05-12T16:46:26.728Z,49.70
2018-05-12T16:48:54.282Z,49.60
2018-05-12T16:51:21.807Z,50.50
2018-05-12T16:53:49.363Z,50.40
2018-05-12T16:56:16.890Z,50.40
2018-05-12T16:58:44.447Z,49.80
2018-05-12T17:01:11.982Z,50.20
2018-05-12T17:03:39.549Z,49.50
2018-05-12T17:06:07.086Z,49.30
2018-05-12T17:08:34.642Z,49.60
2018-05-12T17:11:02.170Z,49.60
2018-05-12T17:13:30.499Z,50.40
2018-05-12T17:15:58.038Z,50.40
2018-05-12T17:18:25.595Z,50.30
2018-05-12T17:20:53.126Z,50.30
2018-05-12T17:23:21.559Z,51.30
2018-05-12T17:25:49.011Z,50.60
2018-05-12T17:28:16.660Z,50.20
2018-05-12T17:30:44.190Z,50.30
2018-05-12T17:33:12.513Z,50.40
2018-05-12T17:35:40.048Z,50.40
2018-05-12T17:38:07.603Z,50.20
2018-05-12T17:40:35.143Z,50.40
2018-05-12T17:43:03.471Z,49.90
2018-05-12T17:45:31.005Z,49.90
2018-05-12T17:47:58.558Z,50.40
2018-05-12T17:50:26.092Z,50.20
2018-05-12T17:52:54.415Z,49.50
2018-05-12T17:55:21.955Z,49.50
2018-05-12T17:57:49.519Z,50.00
2018-05-12T18:00:17.062Z,50.20
2018-05-12T18:02:45.386Z,49.80
2018-05-12T18:05:12.923Z,49.70
2018-05-12T18:07:40.473Z,49.60
2018-05-12T18:10:07.998Z,49.50
2018-05-12T18:12:35.542Z,49.70
2018-05-12T18:15:03.082Z,49.60
2018-05-12T18:17:31.414Z,49.80
2018-05-12T18:19:59.715Z,50.10
2018-05-12T18:22:27.285Z,50.00
2018-05-12T18:24:54.831Z,50.00
2018-05-12T18:27:22.382Z,50.00
2018-05-12T18:29:49.968Z,50.40
2018-05-12T18:32:17.503Z,50.10
2018-05-12T18:34:45.066Z,50.20
2018-05-12T18:37:12.600Z,50.50
2018-05-12T18:39:40.917Z,51.30
2018-05-12T18:42:09.218Z,50.30
2018-05-12T18:44:36.765Z,50.30
2018-05-12T18:47:04.295Z,50.50
2018-05-12T18:49:31.889Z,50.40
2018-05-12T18:51:59.420Z,50.50
2018-05-12T18:54:27.824Z,50.50
2018-05-12T18:56:55.359Z,50.60
2018-05-12T18:59:22.906Z,50.60
2018-05-12T19:01:51.203Z,50.60
2018-05-12T19:04:18.759Z,50.60
2018-05-12T19:06:46.290Z,50.60
2018-05-12T19:09:13.845Z,50.70
2018-05-12T19:11:42.148Z,51.20
2018-05-12T19:14:09.737Z,51.20
2018-05-12T19:16:37.265Z,51.20
2018-05-12T19:19:05.578Z,51.20
2018-05-12T19:21:33.107Z,51.20
2018-05-12T19:24:01.428Z,51.30
2018-05-12T19:26:28.962Z,51.30
2018-05-12T19:28:56.521Z,51.40
2018-05-12T19:31:24.058Z,51.50
2018-05-12T19:33:52.374Z,51.70
2018-05-12T19:36:19.906Z,51.60
2018-05-12T19:38:48.222Z,51.60
2018-05-12T19:41:15.754Z,51.60
2018-05-12T19:43:43.348Z,51.80
2018-05-12T19:46:11.644Z,51.80
2018-05-12T19:48:39.963Z,51.80
2018-05-12T19:51:07.500Z,51.70
2018-05-12T19:53:35.816Z,51.80
2018-05-12T19:56:03.354Z,51.80
2018-05-12T19:58:31.675Z,51.90
2018-05-12T20:00:59.206Z,51.90
2018-05-12T20:03:26.766Z,51.90
2018-05-12T20:05:54.306Z,52.00
2018-05-12T20:08:22.618Z,52.00
2018-05-12T20:10:50.160Z,52.00
2018-05-12T20:13:20.611Z,52.00
2018-05-12T20:15:48.150Z,52.10
2018-05-12T20:18:15.696Z,52.00
2018-05-12T20:20:44.019Z,48.00
2018-05-12T20:23:11.556Z,48.00
2018-05-12T20:25:39.113Z,46.40
2018-05-12T20:28:06.652Z,45.40
2018-05-12T20:30:34.975Z,43.90
2018-05-12T20:33:02.507Z,43.90
2018-05-12T20:35:30.073Z,43.60
2018-05-12T20:37:57.610Z,43.30
2018-05-12T20:40:25.928Z,42.70
2018-05-12T20:42:53.464Z,42.60
2018-05-12T20:45:21.020Z,42.50
2018-05-12T20:47:48.560Z,42.60
2018-05-12T20:50:16.894Z,42.60
2018-05-12T20:52:44.430Z,42.50
2018-05-12T20:55:11.987Z,42.50
2018-05-12T20:57:39.523Z,42.50
2018-05-12T21:00:07.853Z,42.40
2018-05-12T21:02:35.379Z,42.40
2018-05-12T21:05:02.952Z,42.40
2018-05-12T21:07:30.478Z,42.60
2018-05-12T21:09:58.798Z,42.70
2018-05-12T21:12:26.331Z,42.60
2018-05-12T21:14:53.888Z,42.60
2018-05-12T21:17:22.185Z,42.80
2018-05-12T21:19:49.746Z,42.70
2018-05-12T21:22:17.283Z,42.70
2018-05-12T21:24:45.602Z,42.80
2018-05-12T21:27:13.127Z,42.70
2018-05-12T21:29:40.710Z,42.80
2018-05-12T21:32:08.242Z,42.90
2018-05-12T21:34:36.565Z,43.10
2018-05-12T21:37:04.104Z,43.10
2018-05-12T21:39:31.670Z,43.20
2018-05-12T21:41:59.202Z,43.20
2018-05-12T21:44:26.760Z,43.30
2018-05-12T21:46:55.062Z,43.30
2018-05-12T21:49:22.622Z,43.30
2018-05-12T21:51:50.159Z,43.30
2018-05-12T21:54:17.713Z,43.40
2018-05-12T21:56:46.014Z,43.70
2018-05-12T21:59:13.579Z,43.70
2018-05-12T22:01:41.107Z,43.90
2018-05-12T22:04:09.522Z,44.20
2018-05-12T22:06:37.054Z,44.20
2018-05-12T22:09:05.380Z,44.50
2018-05-12T22:11:32.911Z,44.40
2018-05-12T22:14:00.448Z,44.50
2018-05-12T22:16:28.767Z,44.80
2018-05-12T22:18:56.317Z,44.70
2018-05-12T22:21:23.898Z,44.90
2018-05-12T22:23:51.440Z,45.00
2018-05-12T22:26:18.989Z,45.10
2018-05-12T22:28:46.520Z,45.10
2018-05-12T22:31:14.839Z,45.30
2018-05-12T22:33:42.373Z,45.20
2018-05-12T22:36:09.939Z,46.00
2018-05-12T22:38:38.240Z,45.40
2018-05-12T22:41:05.795Z,45.40
2018-05-12T22:43:33.327Z,45.50
2018-05-12T22:46:01.646Z,45.70
2018-05-12T22:48:29.177Z,45.70
2018-05-12T22:50:56.736Z,45.70
2018-05-12T22:53:24.279Z,45.80
2018-05-12T22:55:52.596Z,46.00
2018-05-12T22:58:20.138Z,45.90
2018-05-12T23:00:47.696Z,46.00
2018-05-12T23:03:15.226Z,46.10
2018-05-12T23:05:43.546Z,46.70
2018-05-12T23:08:11.071Z,46.00
2018-05-12T23:10:39.397Z,46.10
2018-05-12T23:13:06.923Z,46.10
2018-05-12T23:15:34.483Z,46.20
2018-05-12T23:18:02.014Z,46.30
2018-05-12T23:20:29.572Z,46.40
2018-05-12T23:22:57.102Z,46.40
2018-05-12T23:25:24.659Z,46.50
2018-05-12T23:27:52.196Z,46.50
2018-05-12T23:30:19.766Z,46.50
2018-05-12T23:32:47.301Z,46.50
2018-05-12T23:35:14.850Z,46.60
2018-05-12T23:37:43.157Z,46.60
2018-05-12T23:40:10.710Z,46.60
2018-05-12T23:42:38.246Z,46.70
2018-05-12T23:45:06.566Z,46.80
2018-05-12T23:47:34.095Z,46.80
2018-05-12T23:50:01.663Z,46.80
2018-05-12T23:52:29.196Z,46.90
2018-05-12T23:54:57.524Z,47.40
2018-05-12T23:57:25.059Z,47.10
2018-05-12T23:59:52.655Z,47.20
